Time;durP1;ratioP1;P1;durP2;ratioP2;P2;SDS_P1;SDS_P2;PMS_P1;PMS_P2;Temp;Humidity;BMP_temperature;BMP_pressure;BME280_temperature;BME280_humidity;BME280_pressure;Samples;Min_cycle;Max_cycle;Signal;HPM_P1;HPM_P2
2022/12/21 00:02:09;;;;;;;6.97;1.93;;;12.40;77.50;;;;;;4987240;28;20026;-69
2022/12/21 00:04:34;;;;;;;5.10;2.10;;;12.50;76.80;;;;;;4990576;28;20026;-69
2022/12/21 00:07:00;;;;;;;11.83;2.97;;;12.60;76.60;;;;;;4981164;28;20057;-68
2022/12/21 00:09:26;;;;;;;10.30;2.17;;;12.60;76.80;;;;;;4989245;28;20022;-68
2022/12/21 00:11:51;;;;;;;9.27;1.97;;;12.60;76.80;;;;;;4986004;28;20516;-68
2022/12/21 00:14:17;;;;;;;3.87;1.80;;;12.70;77.00;;;;;;4988513;28;20482;-68
2022/12/21 00:16:43;;;;;;;5.50;2.17;;;12.70;77.50;;;;;;4987987;28;20023;-68
2022/12/21 00:19:13;;;;;;;3.78;1.50;;;12.60;78.30;;;;;;4987730;28;20062;-68
2022/12/21 00:21:38;;;;;;;6.80;1.85;;;12.60;77.50;;;;;;4988659;28;20022;-69
2022/12/21 00:24:04;;;;;;;4.87;1.63;;;12.60;78.10;;;;;;4988170;28;20391;-69
2022/12/21 00:26:33;;;;;;;9.02;2.47;;;12.60;77.70;;;;;;4988913;28;20031;-68
2022/12/21 00:28:59;;;;;;;5.55;2.13;;;12.60;78.30;;;;;;4978207;28;20093;-69
2022/12/21 00:31:34;;;;;;;5.82;1.73;;;12.50;80.20;;;;;;4987663;28;20062;-69
2022/12/21 00:34:01;;;;;;;7.00;2.30;;;12.50;80.40;;;;;;4989551;28;20030;-69
2022/12/21 00:36:28;;;;;;;6.22;1.70;;;12.40;83.60;;;;;;4986571;28;20045;-69
2022/12/21 00:38:55;;;;;;;4.53;2.05;;;12.30;85.50;;;;;;4988340;28;20034;-69
2022/12/21 00:41:22;;;;;;;7.20;2.42;;;12.20;86.00;;;;;;4987997;28;20062;-69
2022/12/21 00:43:49;;;;;;;8.05;1.85;;;12.20;85.50;;;;;;4987385;28;20026;-69
2022/12/21 00:46:18;;;;;;;6.55;2.67;;;12.20;86.40;;;;;;4990138;28;20104;-69
2022/12/21 00:48:45;;;;;;;9.00;2.28;;;12.10;87.30;;;;;;4987922;28;20027;-69
2022/12/21 00:51:16;;;;;;;5.20;3.45;;;12.00;88.60;;;;;;4985685;28;20042;-69
2022/12/21 00:53:42;;;;;;;10.75;2.78;;;11.90;89.40;;;;;;4988940;28;20030;-68
2022/12/21 00:56:10;;;;;;;10.82;3.63;;;11.90;90.00;;;;;;4989728;28;20030;-68
2022/12/21 00:58:36;;;;;;;14.95;3.85;;;11.90;89.40;;;;;;4987616;28;20030;-70
2022/12/21 01:01:17;;;;;;;6.97;3.10;;;11.90;89.70;;;;;;4985190;28;20081;-69
2022/12/21 01:03:43;;;;;;;9.52;3.70;;;11.80;89.80;;;;;;4988081;28;20375;-69
2022/12/21 01:06:20;;;;;;;9.30;3.78;;;11.80;89.40;;;;;;4987732;28;20057;-69
2022/12/21 01:08:45;;;;;;;17.83;3.40;;;11.70;89.80;;;;;;4987054;28;20031;-70
2022/12/21 01:11:13;;;;;;;13.40;3.10;;;11.70;90.50;;;;;;4992466;28;20026;-69
2022/12/21 01:13:39;;;;;;;9.75;3.00;;;11.70;91.10;;;;;;4994679;28;20030;-71
2022/12/21 01:16:14;;;;;;;8.48;3.67;;;11.40;91.30;;;;;;4993593;28;20089;-69
2022/12/21 01:18:40;;;;;;;7.88;2.80;;;11.50;91.20;;;;;;4991903;28;20035;-69
2022/12/21 01:21:05;;;;;;;9.07;3.33;;;11.50;91.60;;;;;;4992252;28;20026;-70
2022/12/21 01:23:31;;;;;;;11.70;3.90;;;11.50;91.50;;;;;;4988810;28;20046;-69
2022/12/21 01:25:56;;;;;;;9.27;3.70;;;11.50;92.00;;;;;;4995666;28;20117;-72
2022/12/21 01:28:22;;;;;;;8.70;3.17;;;11.40;92.30;;;;;;4994347;28;20026;-72
2022/12/21 01:30:48;;;;;;;10.00;3.33;;;11.40;92.50;;;;;;4993428;28;20026;-69
2022/12/21 01:33:16;;;;;;;8.53;3.23;;;11.50;92.30;;;;;;4993085;28;20794;-74
2022/12/21 01:35:43;;;;;;;12.80;3.05;;;11.40;92.80;;;;;;4991040;28;20029;-73
2022/12/21 01:38:10;;;;;;;8.73;3.28;;;11.50;92.40;;;;;;4994687;28;20035;-73
2022/12/21 01:40:35;;;;;;;7.80;3.30;;;11.50;92.60;;;;;;4993294;28;20030;-72
2022/12/21 01:43:09;;;;;;;7.03;2.97;;;11.40;92.80;;;;;;4994457;28;20380;-73
2022/12/21 01:45:35;;;;;;;9.88;3.60;;;11.40;92.70;;;;;;4999416;28;20122;-73
2022/12/21 01:48:05;;;;;;;7.60;3.70;;;11.40;92.50;;;;;;4994691;28;20038;-73
2022/12/21 01:50:41;;;;;;;7.55;2.90;;;11.40;92.90;;;;;;4996058;28;20505;-74
2022/12/21 01:53:16;;;;;;;5.97;2.60;;;11.40;93.00;;;;;;4992350;28;20018;-69
2022/12/21 01:55:46;;;;;;;8.52;3.33;;;11.40;93.00;;;;;;4994931;28;20026;-73
2022/12/21 01:58:14;;;;;;;6.15;2.78;;;11.40;92.90;;;;;;4995384;28;20082;-74
2022/12/21 02:00:39;;;;;;;;;;;11.40;92.90;;;;;;4995015;28;20434;-72
2022/12/21 02:03:09;;;;;;;7.63;2.92;;;11.40;92.90;;;;;;4991610;28;19960;-72
2022/12/21 02:05:54;;;;;;;8.18;2.42;;;11.30;93.40;;;;;;4999712;28;20034;-73
2022/12/21 02:08:21;;;;;;;12.25;2.83;;;11.30;92.70;;;;;;4994566;28;20085;-73
2022/12/21 02:10:46;;;;;;;;;;;11.50;92.00;;;;;;4996615;28;20034;-73
2022/12/21 02:13:14;;;;;;;14.70;2.85;;;11.40;92.90;;;;;;4993890;28;20390;-73
2022/12/21 02:15:57;;;;;;;8.60;2.90;;;11.40;92.10;;;;;;4996190;28;20052;-73
2022/12/21 02:18:54;;;;;;;5.10;2.10;;;11.50;92.30;;;;;;4993286;28;20402;-73
2022/12/21 02:21:26;;;;;;;9.60;2.65;;;11.50;92.00;;;;;;5011629;28;20406;-73
2022/12/21 02:24:19;;;;;;;8.63;2.83;;;11.40;92.70;;;;;;5010997;28;20537;-72
2022/12/21 02:26:57;;;;;;;6.32;2.53;;;11.40;92.90;;;;;;5011654;28;20042;-72
2022/12/21 02:29:41;;;;;;;;;;;11.40;92.50;;;;;;5001561;28;20402;-72
2022/12/21 02:32:50;;;;;;;7.47;2.50;;;11.40;93.40;;;;;;4991702;28;19906;-71
2022/12/21 02:35:20;;;;;;;14.32;2.63;;;11.30;92.90;;;;;;4989452;28;20140;-72
2022/12/21 02:37:57;;;;;;;8.10;2.70;;;11.40;92.70;;;;;;4991831;28;20031;-71
2022/12/21 02:40:25;;;;;;;;;;;11.30;93.20;;;;;;4992691;28;20152;-71
2022/12/21 02:46:05;;;;;;;7.03;2.40;;;11.20;93.50;;;;;;4972334;28;20077;-71
2022/12/21 02:48:39;;;;;;;7.65;2.45;;;11.30;93.00;;;;;;4972543;28;20454;-70
2022/12/21 02:51:13;;;;;;;7.90;2.65;;;11.40;93.00;;;;;;4972928;28;20470;-72
2022/12/21 02:53:39;;;;;;;8.48;2.15;;;11.30;92.60;;;;;;4972262;28;20050;-72
2022/12/21 02:56:12;;;;;;;7.47;2.35;;;11.30;93.10;;;;;;4986415;28;20033;-73
2022/12/21 02:58:38;;;;;;;6.68;2.13;;;11.40;92.80;;;;;;5002400;28;20509;-69
2022/12/21 03:01:12;;;;;;;10.27;2.50;;;11.40;93.00;;;;;;5003708;28;20050;-72
2022/12/21 03:03:59;;;;;;;9.48;2.05;;;11.30;93.40;;;;;;4991744;28;20426;-69
2022/12/21 03:06:49;;;;;;;7.10;2.17;;;11.40;93.10;;;;;;4991206;28;20396;-70
2022/12/21 03:09:36;;;;;;;4.75;2.15;;;11.40;93.20;;;;;;4991035;28;20038;-71
2022/12/21 03:12:19;;;;;;;2.80;1.75;;;11.50;92.50;;;;;;4992046;28;20101;-70
2022/12/21 03:14:48;;;;;;;6.82;1.98;;;11.50;92.30;;;;;;4991518;28;20046;-71
2022/12/21 03:17:43;;;;;;;11.13;2.78;;;11.50;92.80;;;;;;4990991;28;20100;-71
2022/12/21 03:20:18;;;;;;;10.48;2.42;;;11.50;92.50;;;;;;4988680;28;20050;-71
2022/12/21 03:23:03;;;;;;;6.40;1.95;;;11.60;92.70;;;;;;4991022;28;20022;-70
2022/12/21 03:26:01;;;;;;;9.30;2.45;;;11.60;92.70;;;;;;5000100;28;20045;-72
2022/12/21 03:28:31;;;;;;;13.47;2.50;;;11.70;91.80;;;;;;4993803;28;20081;-71
2022/12/21 03:31:01;;;;;;;7.32;2.25;;;11.70;92.10;;;;;;4991047;28;20630;-72
2022/12/21 03:33:32;;;;;;;6.95;2.63;;;11.70;92.10;;;;;;5009613;28;20022;-73
2022/12/21 03:36:03;;;;;;;6.13;2.30;;;11.70;92.30;;;;;;5010684;28;20760;-72
2022/12/21 03:38:40;;;;;;;8.82;2.28;;;11.70;92.90;;;;;;5007671;28;20030;-73
2022/12/21 03:41:13;;;;;;;9.98;2.65;;;11.50;92.70;;;;;;4990537;28;20026;-73
2022/12/21 03:43:42;;;;;;;7.15;2.55;;;11.70;93.00;;;;;;4994522;28;20030;-70
2022/12/21 03:46:19;;;;;;;9.15;2.60;;;11.50;93.30;;;;;;5004728;28;20033;-70
2022/12/21 03:48:55;;;;;;;11.20;3.53;;;11.50;93.20;;;;;;4997281;28;20037;-69
2022/12/21 03:51:43;;;;;;;9.90;3.00;;;11.50;93.10;;;;;;4989398;28;20206;-70
2022/12/21 03:54:42;;;;;;;6.68;3.25;;;11.50;93.10;;;;;;4971451;28;20031;-70
2022/12/21 03:57:09;;;;;;;9.63;2.97;;;11.40;93.00;;;;;;4971176;28;20037;-69
2022/12/21 03:59:37;;;;;;;11.60;3.05;;;11.40;93.20;;;;;;4985889;28;20490;-72
2022/12/21 04:02:28;;;;;;;7.82;2.95;;;11.40;93.60;;;;;;5009761;28;20140;-72
2022/12/21 04:05:07;;;;;;;5.82;3.05;;;11.40;93.60;;;;;;5010172;28;20072;-72
2022/12/21 04:07:35;;;;;;;16.77;3.47;;;11.30;93.90;;;;;;5009646;28;20529;-73
2022/12/21 04:10:05;;;;;;;8.35;3.08;;;11.40;93.60;;;;;;5010059;28;20037;-72
2022/12/21 04:12:37;;;;;;;10.65;3.28;;;11.30;93.90;;;;;;5009462;28;20041;-71
2022/12/21 04:15:18;;;;;;;6.18;2.47;;;11.30;94.00;;;;;;4994472;28;20026;-73
2022/12/21 04:17:46;;;;;;;9.10;2.80;;;11.40;93.80;;;;;;4990135;28;20041;-72
2022/12/21 04:20:18;;;;;;;12.85;3.45;;;11.40;93.80;;;;;;4989943;28;20141;-73
2022/12/21 04:28:34;;;;;;;4.90;2.70;;;11.40;94.00;;;;;;4988104;28;20057;-73
2022/12/21 04:31:01;;;;;;;14.53;2.60;;;11.40;93.70;;;;;;4987571;28;20492;-72
2022/12/21 04:33:28;;;;;;;9.00;2.72;;;11.40;93.60;;;;;;4988025;28;20058;-73
2022/12/21 04:38:41;;;;;;;13.50;2.97;;;11.40;93.80;;;;;;4990678;28;20041;-73
2022/12/21 04:41:07;;;;;;;14.75;2.65;;;11.40;94.00;;;;;;4993732;28;20030;-71
2022/12/21 04:43:40;;;;;;;10.00;3.20;;;11.40;93.80;;;;;;4999215;28;20469;-73
2022/12/21 04:46:10;;;;;;;8.23;2.83;;;11.40;93.60;;;;;;5008473;28;20042;-72
2022/12/21 04:48:36;;;;;;;8.68;3.08;;;11.60;93.30;;;;;;5005642;28;20045;-70
2022/12/21 04:51:13;;;;;;;8.60;3.08;;;11.50;93.50;;;;;;4989602;28;20529;-70
2022/12/21 04:53:39;;;;;;;9.63;3.05;;;11.50;93.30;;;;;;4989577;28;20085;-72
2022/12/21 04:56:05;;;;;;;5.38;2.83;;;11.60;93.40;;;;;;4995010;28;20111;-73
2022/12/21 04:58:34;;;;;;;12.00;2.92;;;11.50;93.50;;;;;;5009096;28;20494;-73
2022/12/21 05:01:01;;;;;;;13.88;3.45;;;11.50;93.30;;;;;;5009443;28;20025;-71
2022/12/21 05:03:27;;;;;;;5.70;2.88;;;11.50;93.30;;;;;;5006626;28;20022;-70
2022/12/21 05:05:53;;;;;;;12.15;4.30;;;11.50;93.30;;;;;;4999743;28;20046;-73
2022/12/21 05:08:18;;;;;;;11.83;4.73;;;11.40;93.40;;;;;;4989177;28;20486;-72
2022/12/21 05:10:44;;;;;;;14.80;6.37;;;11.40;93.30;;;;;;4989798;28;20038;-71
2022/12/21 05:13:10;;;;;;;13.87;5.53;;;11.30;93.80;;;;;;4989836;28;20423;-70
2022/12/21 05:15:39;;;;;;;9.40;4.40;;;11.30;93.70;;;;;;4989571;28;20030;-71
2022/12/21 05:18:05;;;;;;;14.88;6.07;;;11.30;93.50;;;;;;4989188;28;20034;-70
2022/12/21 05:20:30;;;;;;;10.53;5.40;;;11.30;93.60;;;;;;4989284;28;20026;-70
2022/12/21 05:22:56;;;;;;;15.98;5.78;;;11.20;93.50;;;;;;4997941;28;20851;-73
2022/12/21 05:25:22;;;;;;;17.10;6.43;;;11.20;93.70;;;;;;4995997;28;20057;-73
2022/12/21 05:27:47;;;;;;;11.60;5.87;;;11.00;94.60;;;;;;4989501;28;20026;-72
2022/12/21 05:30:13;;;;;;;14.93;6.13;;;11.10;94.20;;;;;;4993711;28;20031;-69
2022/12/21 05:32:39;;;;;;;14.27;6.93;;;11.00;94.00;;;;;;4986607;28;20058;-70
2022/12/21 05:35:04;;;;;;;13.10;6.30;;;11.10;94.00;;;;;;4987951;28;20034;-73
2022/12/21 05:37:30;;;;;;;13.67;6.53;;;11.10;93.90;;;;;;4984915;28;20030;-73
2022/12/21 05:39:56;;;;;;;15.10;6.83;;;11.10;93.90;;;;;;4984872;28;20038;-73
2022/12/21 05:42:21;;;;;;;15.47;7.20;;;11.00;93.80;;;;;;4986805;28;20030;-71
2022/12/21 05:44:47;;;;;;;11.93;6.87;;;10.90;94.30;;;;;;4985922;28;20456;-71
2022/12/21 05:47:12;;;;;;;16.83;9.70;;;11.00;94.20;;;;;;4984875;28;20453;-70
2022/12/21 05:49:38;;;;;;;14.33;8.20;;;11.00;94.10;;;;;;4983264;28;20022;-69
2022/12/21 05:52:03;;;;;;;14.83;8.70;;;11.00;94.10;;;;;;4985964;28;20027;-69
2022/12/21 05:54:29;;;;;;;16.80;7.83;;;10.80;94.50;;;;;;4986669;28;20402;-68
2022/12/21 05:56:55;;;;;;;18.10;7.60;;;10.90;94.30;;;;;;4992108;28;20129;-70
2022/12/21 05:59:20;;;;;;;17.17;7.93;;;10.70;94.60;;;;;;4987968;28;20117;-69
2022/12/21 06:01:46;;;;;;;13.70;7.20;;;10.90;94.40;;;;;;4990278;28;20479;-70
2022/12/21 06:04:12;;;;;;;11.37;6.53;;;10.80;94.30;;;;;;4989816;28;20043;-68
2022/12/21 06:06:38;;;;;;;13.30;7.33;;;10.80;94.80;;;;;;4990588;28;20037;-70
2022/12/21 06:09:04;;;;;;;14.27;5.28;;;10.70;94.90;;;;;;4981316;28;20495;-69
2022/12/21 06:11:31;;;;;;;14.63;4.97;;;10.90;95.50;;;;;;4992400;28;20069;-71
2022/12/21 06:13:57;;;;;;;18.85;5.55;;;10.90;95.70;;;;;;4987189;28;20109;-73
2022/12/21 06:16:25;;;;;;;10.03;4.30;;;10.90;95.70;;;;;;4987331;28;20097;-71
2022/12/21 06:18:52;;;;;;;12.93;4.72;;;11.00;95.70;;;;;;4990209;28;20038;-71
2022/12/21 06:21:17;;;;;;;;;;;10.90;95.70;;;;;;4994701;28;20026;-72
2022/12/21 06:23:44;;;;;;;15.05;4.90;;;11.00;95.70;;;;;;4989403;28;19905;-71
2022/12/21 06:26:15;;;;;;;17.20;4.80;;;11.00;95.70;;;;;;4991353;28;20101;-72
2022/12/21 06:28:41;;;;;;;16.80;4.57;;;10.90;95.80;;;;;;4993069;28;20026;-72
2022/12/21 06:31:10;;;;;;;12.25;4.70;;;10.80;96.00;;;;;;4990194;28;20019;-71
2022/12/21 06:33:36;;;;;;;19.83;5.53;;;10.90;95.80;;;;;;4988977;28;20031;-73
2022/12/21 06:36:04;;;;;;;11.98;4.93;;;10.90;95.80;;;;;;4987932;28;20030;-73
2022/12/21 06:38:31;;;;;;;13.95;5.07;;;10.90;95.70;;;;;;4990452;28;20043;-73
2022/12/21 06:40:59;;;;;;;15.95;5.15;;;11.00;95.60;;;;;;4986819;28;20023;-73
2022/12/21 06:43:26;;;;;;;8.32;4.38;;;10.90;95.80;;;;;;4993329;28;20109;-73
2022/12/21 06:46:04;;;;;;;19.88;5.65;;;11.00;95.50;;;;;;4990115;28;20447;-73
2022/12/21 06:48:31;;;;;;;14.55;5.00;;;11.10;95.30;;;;;;4986003;28;20108;-73
2022/12/21 06:50:59;;;;;;;16.48;5.97;;;11.00;95.30;;;;;;4987672;28;20074;-73
2022/12/21 06:53:27;;;;;;;10.25;4.65;;;11.00;95.40;;;;;;4989243;28;20090;-73
2022/12/21 06:56:05;;;;;;;15.52;5.10;;;11.00;95.50;;;;;;4991320;28;20035;-73
2022/12/21 06:58:31;;;;;;;19.92;5.63;;;10.90;95.70;;;;;;4985907;28;20035;-73
2022/12/21 07:01:12;;;;;;;16.10;5.10;;;10.90;95.70;;;;;;4990543;28;20023;-71
2022/12/21 07:03:40;;;;;;;15.52;5.38;;;10.90;95.60;;;;;;4994188;28;20046;-72
2022/12/21 07:06:06;;;;;;;18.70;5.00;;;10.90;95.70;;;;;;4987055;28;20046;-72
2022/12/21 07:08:33;;;;;;;23.08;5.45;;;10.90;95.70;;;;;;4989240;28;20109;-72
2022/12/21 07:11:01;;;;;;;10.27;4.88;;;11.00;95.50;;;;;;4989666;28;20031;-72
2022/12/21 07:13:27;;;;;;;16.23;5.18;;;10.90;95.80;;;;;;4991223;28;20019;-72
2022/12/21 07:15:53;;;;;;;;;;;10.90;95.70;;;;;;4988701;28;20446;-70
2022/12/21 07:18:19;;;;;;;11.00;5.05;;;11.00;95.50;;;;;;5022538;28;19948;-73
2022/12/21 07:20:45;;;;;;;15.55;5.18;;;11.00;95.40;;;;;;4991280;28;20465;-70
2022/12/21 07:23:11;;;;;;;14.48;5.65;;;11.00;95.30;;;;;;4991190;28;20475;-70
2022/12/21 07:25:37;;;;;;;23.40;5.72;;;10.90;95.70;;;;;;4989048;28;20109;-72
2022/12/21 07:28:03;;;;;;;12.77;5.70;;;10.90;95.80;;;;;;4992178;28;20058;-70
2022/12/21 07:30:28;;;;;;;12.77;5.73;;;10.90;96.10;;;;;;4992741;28;20042;-71
2022/12/21 07:32:54;;;;;;;16.50;5.80;;;10.90;95.90;;;;;;4989913;28;20129;-71
2022/12/21 07:35:21;;;;;;;12.98;6.03;;;10.90;96.20;;;;;;4985971;28;20030;-71
2022/12/21 07:37:48;;;;;;;14.20;6.90;;;10.90;96.20;;;;;;4987279;28;20085;-70
2022/12/21 07:40:17;;;;;;;12.02;6.55;;;10.90;96.30;;;;;;4990189;28;20072;-71
2022/12/21 07:42:44;;;;;;;16.20;6.32;;;10.90;96.20;;;;;;4988899;28;20030;-70
2022/12/21 07:45:10;;;;;;;18.45;9.02;;;10.90;96.40;;;;;;4988836;28;20121;-69
2022/12/21 07:47:37;;;;;;;19.35;7.90;;;11.00;96.20;;;;;;4991586;28;20139;-68
2022/12/21 07:50:04;;;;;;;20.63;7.45;;;11.00;96.20;;;;;;4985055;28;20031;-70
2022/12/21 07:52:33;;;;;;;20.48;9.00;;;11.00;96.40;;;;;;4986223;28;20046;-70
2022/12/21 07:55:00;;;;;;;20.25;8.85;;;11.00;96.00;;;;;;4988126;28;20034;-69
2022/12/21 07:57:26;;;;;;;29.75;9.90;;;11.00;96.50;;;;;;4987954;28;20324;-68
2022/12/21 07:59:51;;;;;;;18.83;8.50;;;10.90;96.40;;;;;;4988409;28;20037;-70
2022/12/21 08:02:17;;;;;;;19.13;8.00;;;11.00;96.30;;;;;;4987797;28;20065;-69
2022/12/21 08:04:43;;;;;;;15.63;7.17;;;11.00;96.20;;;;;;4985239;28;20034;-70
2022/12/21 08:07:08;;;;;;;20.57;7.00;;;11.10;96.30;;;;;;4986009;28;20118;-70
2022/12/21 08:09:35;;;;;;;16.77;7.10;;;11.10;95.90;;;;;;4991145;28;20026;-68
2022/12/21 08:12:01;;;;;;;15.10;6.85;;;11.20;95.80;;;;;;4983257;28;20061;-69
2022/12/21 08:14:27;;;;;;;16.13;6.25;;;11.30;95.50;;;;;;4987081;28;20030;-69
2022/12/21 08:16:52;;;;;;;17.97;6.90;;;11.30;95.70;;;;;;4990665;28;20378;-69
2022/12/21 08:19:18;;;;;;;18.08;5.85;;;11.30;95.50;;;;;;4987742;28;20563;-69
2022/12/21 08:21:44;;;;;;;24.45;6.07;;;11.30;95.60;;;;;;4977371;28;20045;-69
2022/12/21 08:24:10;;;;;;;14.07;6.35;;;11.30;95.60;;;;;;4986177;28;20034;-69
2022/12/21 08:26:37;;;;;;;14.35;6.60;;;11.30;95.60;;;;;;4982643;28;20077;-69
2022/12/21 08:29:03;;;;;;;17.58;6.60;;;11.40;95.20;;;;;;4986930;28;20478;-70
2022/12/21 08:31:28;;;;;;;20.25;6.88;;;11.40;95.20;;;;;;4988643;28;20041;-73
2022/12/21 08:33:54;;;;;;;21.57;5.87;;;11.40;95.40;;;;;;4986827;28;20027;-72
2022/12/21 08:36:21;;;;;;;19.80;6.87;;;11.30;95.20;;;;;;4988078;28;20112;-72
2022/12/21 08:38:47;;;;;;;20.13;6.18;;;11.40;94.90;;;;;;4986046;28;20029;-72
2022/12/21 08:41:13;;;;;;;14.20;5.80;;;11.50;94.50;;;;;;4988161;28;20097;-72
2022/12/21 08:43:39;;;;;;;16.25;7.20;;;11.50;94.70;;;;;;4987673;28;20114;-72
2022/12/21 08:46:08;;;;;;;11.43;6.10;;;11.60;94.60;;;;;;4984926;28;20501;-73
2022/12/21 08:48:34;;;;;;;13.40;6.32;;;11.60;94.40;;;;;;4989325;28;20057;-73
2022/12/21 08:51:00;;;;;;;15.18;5.82;;;11.60;94.60;;;;;;4992435;28;20030;-74
2022/12/21 08:53:27;;;;;;;15.95;6.97;;;11.60;94.40;;;;;;4987692;28;20029;-72
2022/12/21 08:55:53;;;;;;;;;;;11.50;94.70;;;;;;4984636;28;20125;-74
2022/12/21 08:58:19;;;;;;;15.02;6.25;;;11.60;94.80;;;;;;4986964;28;20001;-73
2022/12/21 09:00:45;;;;;;;27.60;7.10;;;11.80;94.40;;;;;;4987028;28;20443;-73
2022/12/21 09:03:10;;;;;;;13.65;6.13;;;11.70;94.10;;;;;;4983904;28;20035;-74
2022/12/21 09:05:36;;;;;;;17.43;6.50;;;11.80;94.30;;;;;;4983153;28;20479;-73
2022/12/21 09:08:03;;;;;;;9.25;4.60;;;11.70;94.30;;;;;;4983963;28;20477;-71
2022/12/21 09:10:28;;;;;;;11.15;5.50;;;11.60;94.40;;;;;;4986755;28;20046;-73
2022/12/21 09:12:55;;;;;;;15.50;5.83;;;11.60;94.90;;;;;;4988034;28;20022;-73
2022/12/21 09:15:21;;;;;;;15.18;6.07;;;11.70;94.70;;;;;;4985717;28;20040;-73
2022/12/21 09:17:47;;;;;;;13.63;5.72;;;11.80;94.80;;;;;;4986947;28;20035;-71
2022/12/21 09:20:13;;;;;;;11.80;5.28;;;11.90;95.00;;;;;;4989605;28;20046;-73
2022/12/21 09:22:39;;;;;;;10.90;5.57;;;12.00;94.60;;;;;;4987795;28;20430;-72
2022/12/21 09:25:06;;;;;;;10.47;6.07;;;12.00;94.90;;;;;;4986409;28;20022;-74
2022/12/21 09:27:31;;;;;;;11.23;4.35;;;12.00;94.10;;;;;;4988126;28;20034;-73
2022/12/21 09:29:57;;;;;;;11.40;4.87;;;12.00;94.10;;;;;;4987349;28;20543;-74
2022/12/21 09:32:22;;;;;;;16.40;5.00;;;12.00;93.70;;;;;;4989940;28;20045;-74
2022/12/21 09:34:48;;;;;;;11.73;4.63;;;12.00;94.00;;;;;;4989531;28;20076;-74
2022/12/21 09:37:14;;;;;;;16.10;5.23;;;12.00;93.70;;;;;;4987268;28;20077;-71
2022/12/21 09:39:40;;;;;;;10.43;4.93;;;12.20;93.70;;;;;;4989922;28;20192;-70
2022/12/21 09:42:12;;;;;;;14.85;5.05;;;12.20;93.80;;;;;;4992779;28;20436;-70
2022/12/21 09:44:50;;;;;;;11.50;5.20;;;12.30;93.20;;;;;;4989240;28;20113;-73
2022/12/21 09:47:21;;;;;;;13.00;4.65;;;12.50;93.30;;;;;;4987954;28;20050;-70
2022/12/21 09:49:57;;;;;;;15.07;4.65;;;12.60;92.60;;;;;;4979589;28;20053;-71
2022/12/21 09:52:36;;;;;;;7.78;3.97;;;12.70;93.10;;;;;;4990969;28;20413;-75
2022/12/21 09:55:25;;;;;;;12.55;4.20;;;12.80;92.20;;;;;;5005159;28;20025;-74
2022/12/21 09:57:52;;;;;;;9.88;4.93;;;12.90;91.80;;;;;;4985866;28;20483;-75
2022/12/21 10:00:21;;;;;;;9.38;3.45;;;13.10;91.60;;;;;;4991389;28;20037;-73
2022/12/21 10:03:27;;;;;;;8.88;4.57;;;13.20;91.80;;;;;;4986533;28;20061;-71
2022/12/21 10:06:32;;;;;;;16.15;4.55;;;12.90;92.10;;;;;;4997526;28;20117;-74
2022/12/21 10:09:06;;;;;;;12.27;4.07;;;12.90;91.90;;;;;;4987989;28;20176;-75
2022/12/21 10:11:56;;;;;;;15.20;5.70;;;12.80;92.10;;;;;;4983790;28;20045;-74
2022/12/21 10:14:43;;;;;;;14.05;5.45;;;12.80;92.10;;;;;;4990015;28;20033;-75
2022/12/21 10:17:11;;;;;;;9.23;4.13;;;12.70;92.20;;;;;;4990755;28;20022;-75
2022/12/21 10:20:36;;;;;;;10.50;4.68;;;12.70;92.20;;;;;;4987204;28;20031;-74
2022/12/21 10:23:10;;;;;;;7.78;4.00;;;12.80;91.70;;;;;;4952791;28;20047;-70
2022/12/21 10:25:47;;;;;;;11.40;3.60;;;12.80;92.00;;;;;;4967575;28;20129;-70
2022/12/21 10:28:40;;;;;;;10.43;4.10;;;12.80;91.70;;;;;;4981920;28;20061;-70
2022/12/21 10:31:12;;;;;;;9.82;4.10;;;12.90;91.60;;;;;;4990526;28;20045;-72
2022/12/21 10:33:40;;;;;;;9.68;4.18;;;13.00;91.70;;;;;;4991955;28;20504;-71
2022/12/21 10:36:11;;;;;;;8.60;3.45;;;13.10;91.40;;;;;;4992448;28;20498;-70
2022/12/21 10:38:37;;;;;;;9.73;4.40;;;13.20;91.10;;;;;;4988231;28;20022;-70
2022/12/21 10:41:08;;;;;;;14.30;4.10;;;13.20;91.00;;;;;;4994686;28;20053;-70
2022/12/21 10:43:38;;;;;;;11.30;4.05;;;13.40;91.20;;;;;;4986026;28;20027;-70
2022/12/21 10:46:05;;;;;;;14.60;4.05;;;13.70;90.60;;;;;;4990079;28;20039;-70
2022/12/21 10:48:31;;;;;;;11.65;3.15;;;13.70;90.60;;;;;;4994669;28;20033;-69
2022/12/21 10:51:23;;;;;;;9.57;4.03;;;13.60;90.50;;;;;;4986021;28;20034;-73
2022/12/21 10:54:27;;;;;;;12.45;2.92;;;13.60;91.00;;;;;;4989472;28;20034;-73
2022/12/21 10:56:53;;;;;;;10.02;4.00;;;13.60;90.80;;;;;;4996903;28;20086;-73
2022/12/21 10:59:26;;;;;;;9.88;2.55;;;13.70;91.10;;;;;;5004041;28;20041;-73
2022/12/21 11:01:52;;;;;;;8.45;2.75;;;13.80;89.60;;;;;;4988590;28;20026;-74
2022/12/21 11:04:24;;;;;;;9.88;3.28;;;13.90;89.40;;;;;;4989335;28;20041;-72
2022/12/21 11:06:55;;;;;;;8.38;2.92;;;14.00;89.50;;;;;;4990922;28;20506;-73
2022/12/21 11:09:35;;;;;;;9.45;2.45;;;14.10;90.30;;;;;;4989626;28;20409;-74
2022/12/21 11:12:18;;;;;;;3.05;2.22;;;14.20;88.30;;;;;;4987127;28;20026;-73
2022/12/21 11:14:44;;;;;;;4.60;2.33;;;14.10;89.40;;;;;;4987725;28;20081;-72
2022/12/21 11:17:22;;;;;;;6.95;2.47;;;14.10;88.90;;;;;;4988782;28;20022;-75
2022/12/21 11:19:51;;;;;;;9.20;1.95;;;14.10;89.00;;;;;;4985590;28;20034;-71
2022/12/21 11:22:25;;;;;;;5.50;2.15;;;14.00;89.90;;;;;;4987961;28;20021;-73
2022/12/21 11:24:56;;;;;;;4.20;1.85;;;14.10;88.20;;;;;;4987385;28;20038;-73
2022/12/21 11:27:32;;;;;;;8.20;2.20;;;14.30;87.80;;;;;;4988103;28;20053;-71
2022/12/21 11:30:07;;;;;;;3.10;1.75;;;14.30;88.10;;;;;;4983015;28;20019;-72
2022/12/21 11:32:33;;;;;;;3.47;1.75;;;14.30;87.30;;;;;;4982537;28;20027;-71
2022/12/21 11:35:04;;;;;;;4.50;1.77;;;14.20;87.50;;;;;;4983745;28;20114;-71
2022/12/21 11:37:44;;;;;;;2.08;1.50;;;14.10;88.00;;;;;;4986820;28;20069;-70
2022/12/21 11:40:30;;;;;;;6.50;2.00;;;14.20;88.10;;;;;;4986991;28;20710;-71
2022/12/21 11:42:59;;;;;;;4.38;2.15;;;14.20;88.10;;;;;;4985719;28;20042;-71
2022/12/21 11:45:49;;;;;;;7.18;2.15;;;14.40;88.70;;;;;;4974748;28;20043;-70
2022/12/21 11:48:35;;;;;;;5.93;1.75;;;14.50;87.40;;;;;;4982845;28;20491;-71
2022/12/21 11:51:08;;;;;;;10.82;4.13;;;14.70;86.60;;;;;;4986310;28;20129;-69
2022/12/21 11:53:58;;;;;;;6.78;2.60;;;14.80;86.80;;;;;;4985934;28;20521;-71
2022/12/21 11:56:44;;;;;;;7.25;2.10;;;14.90;85.70;;;;;;4988487;28;20056;-73
2022/12/21 11:59:18;;;;;;;6.07;2.75;;;15.00;85.60;;;;;;4984837;28;20512;-71
2022/12/21 12:02:19;;;;;;;4.78;1.30;;;15.10;86.10;;;;;;4985304;28;20052;-72
2022/12/21 12:05:20;;;;;;;5.53;2.10;;;15.20;84.90;;;;;;4984347;28;20081;-74
2022/12/21 12:07:54;;;;;;;4.03;1.58;;;15.20;86.10;;;;;;4944703;28;20201;-72
2022/12/21 12:10:43;;;;;;;6.07;1.63;;;15.20;85.60;;;;;;4981632;28;20143;-72
2022/12/21 12:13:36;;;;;;;3.30;1.40;;;15.30;84.60;;;;;;4984164;28;20038;-72
2022/12/21 12:16:36;;;;;;;4.30;2.00;;;15.40;85.30;;;;;;4984010;28;20031;-72
2022/12/21 12:19:24;;;;;;;5.20;2.22;;;15.40;84.10;;;;;;4979681;28;20070;-70
2022/12/21 12:21:53;;;;;;;4.07;1.75;;;15.40;84.00;;;;;;4978581;28;20018;-72
2022/12/21 12:24:39;;;;;;;3.63;2.20;;;15.40;85.10;;;;;;4987195;28;20022;-72
2022/12/21 12:27:26;;;;;;;9.07;2.20;;;15.20;85.60;;;;;;4985218;28;20061;-72
2022/12/21 12:30:06;;;;;;;4.03;1.70;;;15.00;84.80;;;;;;4979669;28;20029;-72
2022/12/21 12:32:32;;;;;;;3.80;2.08;;;14.80;84.20;;;;;;4983327;28;20029;-71
2022/12/21 12:35:40;;;;;;;5.03;1.83;;;14.80;84.40;;;;;;4983417;28;20035;-71
2022/12/21 12:38:23;;;;;;;5.57;2.15;;;14.80;84.70;;;;;;4972182;28;20042;-71
2022/12/21 12:41:10;;;;;;;7.68;1.98;;;14.80;83.20;;;;;;4988603;28;20034;-71
2022/12/21 12:44:01;;;;;;;5.53;1.83;;;14.80;85.00;;;;;;4983817;28;20022;-72
2022/12/21 12:46:29;;;;;;;6.13;1.90;;;14.80;83.20;;;;;;4986950;28;20576;-72
2022/12/21 12:49:12;;;;;;;4.20;1.33;;;14.80;84.00;;;;;;4984990;28;20026;-71
2022/12/21 12:52:07;;;;;;;7.13;1.83;;;14.60;85.00;;;;;;4986579;28;20026;-71
2022/12/21 12:54:45;;;;;;;7.43;2.33;;;14.60;84.10;;;;;;4978822;28;20034;-72
2022/12/21 12:57:32;;;;;;;4.80;1.90;;;14.50;83.70;;;;;;4986172;28;20034;-71
2022/12/21 13:00:10;;;;;;;3.00;1.52;;;14.50;84.90;;;;;;4987850;28;20038;-71
2022/12/21 13:03:15;;;;;;;5.30;2.13;;;14.40;84.60;;;;;;4982306;28;20524;-71
2022/12/21 13:05:50;;;;;;;3.10;1.58;;;14.50;84.90;;;;;;4980126;28;20113;-71
2022/12/21 13:08:23;;;;;;;5.32;2.00;;;14.60;83.90;;;;;;4986364;28;20034;-72
2022/12/21 13:11:00;;;;;;;7.55;1.90;;;14.60;85.10;;;;;;4987039;28;20033;-72
2022/12/21 13:13:40;;;;;;;4.00;1.80;;;14.60;83.40;;;;;;4985733;28;20037;-72
2022/12/21 13:16:42;;;;;;;7.05;1.90;;;14.70;83.50;;;;;;4986236;28;20840;-72
2022/12/21 13:19:14;;;;;;;6.70;1.77;;;14.80;83.80;;;;;;4986101;28;20023;-72
2022/12/21 13:21:42;;;;;;;4.32;1.67;;;14.90;83.90;;;;;;4993266;28;20045;-72